Date,TemperatureHighF,TemperatureAvgF,TemperatureLowF,DewpointHighF,DewpointAvgF,DewpointLowF,HumidityHigh,HumidityAvg,HumidityLow,PressureMaxIn,PressureMinIn,WindSpeedMaxMPH,WindSpeedAvgMPH,GustSpeedMaxMPH,PrecipitationSumIn
2013-1-1,14,6,-2,6,0,-5,85,78,63,30.41,30.24,9,2,10,0.00
2013-1-2,30,18,6,28,15,2,100,86,79,30.24,30.11,11,3,12,0.00
2013-1-3,30,19,8,27,15,6,92,84,74,30.43,30.23,21,5,22,0.00
2013-1-4,34,22,10,24,17,8,100,83,65,30.35,30.21,12,3,12,0.00
2013-1-5,38,26,18,33,22,15,100,87,76,30.22,29.98,21,4,25,0.00
2013-1-6,27,20,13,20,15,9,92,83,72,30.36,30.15,22,4,23,0.00
2013-1-7,41,31,22,32,25,18,93,80,66,30.25,30.04,23,4,23,0.00
2013-1-8,43,32,19,35,28,17,96,85,72,30.12,29.87,13,2,13,0.00
2013-1-9,44,35,29,34,30,27,93,84,65,30.47,30.11,13,2,13,0.00
2013-1-10,38,33,26,34,30,23,97,89,74,30.42,29.75,13,3,15,0.05
2013-1-11,48,41,34,44,39,33,98,94,77,29.76,29.45,17,3,19,0.01
2013-1-12,46,22,13,38,16,6,92,77,71,30.14,29.58,22,7,23,0.00
2013-1-13,20,13,7,13,6,2,83,76,68,30.41,30.10,18,5,19,0.00
2013-1-14,29,17,6,18,10,3,90,75,52,30.55,30.40,10,1,13,0.00
2013-1-15,33,22,13,20,15,9,92,73,53,30.45,30.10,13,3,13,0.00
2013-1-16,46,33,22,37,26,14,92,77,68,30.25,29.92,21,5,21,0.00
2013-1-17,35,24,15,26,18,10,90,77,51,30.51,30.25,12,2,14,0.00
2013-1-18,52,40,25,37,32,21,92,73,54,30.37,29.88,24,6,24,0.00
2013-1-19,50,38,17,36,30,8,84,72,51,30.30,29.82,27,7,36,0.00
2013-1-20,17,12,6,10,6,2,84,78,66,30.46,30.30,19,5,22,0.00
2013-1-21,7,2,-4,2,-4,-11,89,74,66,30.54,30.42,25,6,25,0.00
2013-1-22,16,9,0,9,1,-5,84,72,60,30.54,30.37,10,2,10,0.00
2013-1-23,28,16,4,20,9,-3,85,72,61,30.62,30.25,24,7,26,0.00
2013-1-24,20,10,3,9,0,-5,73,63,52,30.69,30.29,16,5,19,0.00
2013-1-25,36,23,12,26,15,4,85,71,61,30.37,30.15,22,6,24,0.00
2013-1-26,34,21,8,19,11,3,82,66,49,30.42,30.20,13,4,13,0.00
2013-1-27,34,33,30,34,29,18,98,88,59,30.20,29.78,12,4,14,0.08
2013-1-28,44,36,33,44,35,32,99,98,97,29.95,29.59,12,3,17,0.37
2013-1-29,51,37,31,51,36,29,99,96,91,29.69,29.53,23,6,26,0.04
2013-1-30,31,23,14,29,20,9,95,88,77,29.92,29.53,32,12,33,0.00
2013-1-31,14,6,-1,9,0,-7,89,76,68,30.47,29.92,24,9,32,0.00
2013-2-1,25,6,-5,19,0,-10,89,75,66,30.50,30.12,14,4,17,0.00
2013-2-2,32,21,15,29,16,9,94,80,62,30.27,30.03,19,5,22,0.00
2013-2-3,34,26,16,29,19,13,87,76,61,30.23,29.83,30,6,31,0.00
2013-2-4,30,24,19,27,20,16,95,84,72,30.07,29.80,21,4,23,0.00
2013-2-5,44,32,22,36,28,20,94,83,69,30.15,29.84,26,4,26,0.00
2013-2-6,42,34,25,36,30,23,100,87,76,30.16,29.94,12,3,12,0.00
2013-2-7,37,32,27,35,30,25,100,92,85,30.25,29.91,19,6,22,0.11
2013-2-8,29,27,24,25,24,21,91,89,86,30.42,30.25,16,4,17,0.00
2013-2-9,36,31,27,33,29,25,95,90,84,30.30,29.86,14,6,16,0.10
2013-2-10,48,37,32,44,34,25,100,91,74,29.86,29.28,25,8,27,0.06
2013-2-11,32,29,27,26,24,22,89,80,77,30.17,29.61,32,9,32,0.00
2013-2-12,46,33,22,34,26,20,92,77,46,30.19,29.90,14,3,18,0.00
2013-2-13,50,37,26,35,30,23,91,75,51,29.90,29.70,14,3,14,0.00
2013-2-14,42,35,23,34,28,15,92,79,67,30.23,29.73,21,8,21,0.00
2013-2-15,30,22,16,17,13,9,84,71,54,30.38,30.23,18,6,18,0.00
2013-2-16,36,23,12,22,16,9,99,76,52,30.37,30.15,12,2,12,0.00
2013-2-17,46,32,19,29,24,17,95,73,51,30.15,29.67,17,5,17,0.54
2013-2-18,42,30,16,35,24,10,92,80,70,29.98,29.58,31,8,33,0.00
2013-2-19,23,15,6,9,6,0,82,68,51,30.46,29.98,31,11,31,0.00
2013-2-20,24,14,1,15,5,-4,88,67,52,30.53,30.37,12,4,13,0.00
2013-2-21,26,22,17,23,16,12,100,81,66,30.40,29.90,26,8,27,0.00
2013-2-22,27,24,22,25,21,18,94,89,83,30.04,29.83,18,4,18,0.00
2013-2-23,32,21,12,23,17,9,96,83,67,30.03,29.95,10,2,11,0.00
2013-2-24,39,27,14,31,23,12,93,85,69,30.14,29.99,7,1,7,0.00
2013-2-25,40,33,27,32,29,25,94,85,69,30.13,29.95,11,2,12,0.00
2013-2-26,32,30,29,31,28,26,95,92,85,29.95,29.76,21,8,21,0.00
2013-2-27,32,29,25,28,26,21,93,87,78,30.04,29.83,21,8,21,0.00
2013-2-28,34,28,21,27,24,18,92,84,72,30.22,30.04,16,6,17,0.02
2013-3-1,31,27,25,25,22,19,90,82,73,30.38,30.21,15,6,15,0.05
2013-3-2,35,24,15,23,18,12,90,80,61,30.39,30.23,10,3,11,0.00
2013-3-3,34,29,22,26,23,18,92,79,63,30.23,29.94,20,5,21,0.00
2013-3-4,36,31,27,32,29,25,100,91,83,30.00,29.82,21,6,22,0.00
2013-3-5,33,29,26,30,25,22,96,84,74,30.34,29.98,30,8,30,0.00
2013-3-6,33,25,17,24,21,14,92,82,67,30.48,30.34,16,4,17,0.00
2013-3-7,34,23,12,27,20,10,94,87,72,30.43,30.30,19,3,19,0.00
2013-3-8,40,32,23,35,29,20,94,87,76,30.34,30.07,18,5,18,0.09
2013-3-9,40,38,35,39,37,34,98,96,93,30.07,29.65,16,4,16,0.68
2013-3-10,38,34,31,37,33,29,98,97,95,29.83,29.67,22,7,24,0.26
2013-3-11,31,27,24,29,25,21,95,90,81,29.99,29.77,18,2,18,0.00
2013-3-12,34,26,19,29,22,16,91,84,72,30.31,29.99,31,6,31,0.00
2013-3-13,33,24,14,22,18,12,89,79,61,30.51,30.30,14,3,15,0.21
2013-3-14,47,36,24,36,30,20,94,78,61,30.36,30.10,13,2,14,0.00
2013-3-15,51,39,30,46,36,28,96,90,80,30.10,29.74,13,2,13,0.00
2013-3-16,36,32,27,34,29,22,94,87,78,30.25,29.81,20,7,24,0.00
2013-3-17,38,30,21,31,24,17,86,79,69,30.24,29.88,21,7,21,0.00
2013-3-18,33,28,21,32,23,14,97,81,66,30.04,29.75,28,8,30,0.02
2013-3-19,37,25,16,24,16,9,84,69,54,30.32,30.02,23,6,23,0.00
2013-3-20,27,21,14,16,12,6,81,67,52,30.40,30.20,27,9,27,0.00
2013-3-21,34,23,11,21,14,7,84,70,53,30.21,30.04,13,3,13,0.00
2013-3-22,37,29,19,26,21,15,92,73,57,30.12,30.05,11,2,12,0.00
2013-3-23,37,32,26,27,24,20,92,74,50,30.17,30.06,15,3,15,0.00
2013-3-24,32,30,27,29,27,24,94,89,74,30.08,29.95,20,8,20,0.02
2013-3-25,37,31,28,27,25,23,94,79,58,30.31,30.02,22,8,25,0.17
2013-3-26,40,30,22,29,23,19,92,75,54,30.39,30.31,16,4,18,0.00
2013-3-27,46,34,22,32,27,20,94,76,51,30.38,30.28,13,2,13,0.00
2013-3-28,54,41,28,40,33,25,93,74,52,30.34,30.24,14,3,14,0.00
2013-3-29,62,46,32,41,35,29,92,69,39,30.30,30.12,13,3,16,0.00
2013-3-30,60,49,42,52,44,36,96,84,69,30.12,29.87,11,2,13,0.25
2013-3-31,51,41,32,41,33,20,98,75,51,30.13,29.89,24,7,30,0.01
2013-4-1,40,31,22,23,20,17,82,65,45,30.34,30.13,18,6,18,0.00
2013-4-2,47,32,21,27,22,18,91,70,37,30.39,30.33,16,2,17,0.00
2013-4-3,51,38,25,28,25,22,88,62,37,30.44,30.27,12,2,12,0.00
2013-4-4,62,46,31,43,32,23,76,58,42,30.28,30.05,18,4,21,0.00
2013-4-5,59,47,30,38,32,28,90,59,34,30.21,29.82,17,5,19,0.00
2013-4-6,67,56,45,50,44,38,83,64,53,29.82,29.54,19,6,22,0.00
2013-4-7,66,49,34,47,40,32,97,75,48,29.94,29.65,16,4,19,0.00
2013-4-8,74,61,47,56,52,44,96,72,45,29.77,29.60,16,2,16,0.00
2013-4-9,57,48,42,53,47,40,97,95,86,29.97,29.68,22,7,23,0.70
2013-4-10,42,39,38,41,38,36,100,95,93,29.97,29.74,29,5,29,0.73
2013-4-11,41,38,36,40,36,34,98,94,83,29.76,29.61,13,3,15,0.24
2013-4-12,39,36,34,35,31,26,96,85,73,29.98,29.63,22,7,24,0.01
2013-4-13,50,42,30,39,33,26,87,72,56,30.03,29.84,17,4,21,0.00
2013-4-14,69,51,40,56,46,38,98,84,62,29.84,29.39,23,6,23,0.56
2013-4-15,49,41,37,44,34,28,87,74,63,30.09,29.64,22,4,22,0.00
2013-4-16,52,42,32,38,34,29,91,74,55,30.28,30.08,19,4,19,0.00
2013-4-17,45,42,40,42,40,36,97,91,74,30.22,29.66,32,6,33,2.01
2013-4-18,42,37,34,41,36,31,100,93,87,29.77,29.57,24,9,25,0.68
2013-4-19,43,36,30,32,28,25,89,74,59,30.10,29.71,33,10,36,0.00
2013-4-20,47,37,26,32,26,22,89,67,43,30.32,30.10,14,3,17,0.00
2013-4-21,67,52,40,49,39,29,93,64,36,30.27,30.05,21,6,25,0.24
2013-4-22,63,52,36,53,48,34,100,85,62,30.16,29.89,18,4,22,0.56
2013-4-23,43,36,32,33,29,24,91,78,58,30.18,30.06,26,10,28,0.00
2013-4-24,55,40,26,39,30,24,90,68,37,30.20,30.02,21,4,21,0.00
2013-4-25,63,47,33,38,33,29,89,62,35,30.29,30.12,16,4,16,0.00
2013-4-26,67,57,48,52,46,38,86,66,53,30.18,30.08,23,6,29,0.00
2013-4-27,68,56,44,54,47,42,96,75,50,30.21,29.97,11,2,13,0.00
2013-4-28,76,61,45,55,50,43,94,70,43,29.99,29.72,16,4,17,0.00
2013-4-29,80,66,53,64,56,50,91,72,51,29.75,29.49,19,2,21,0.04
2013-4-30,82,72,55,63,56,45,85,58,41,29.84,29.48,24,8,24,0.01
2013-5-1,56,47,38,49,41,34,92,79,68,30.35,29.84,30,13,31,0.02
2013-5-2,38,35,33,36,33,32,96,93,87,30.48,30.30,33,10,33,1.39
2013-5-3,34,34,33,33,32,31,96,94,91,30.39,30.00,23,10,28,0.40
2013-5-4,46,40,34,46,39,32,100,96,93,30.10,29.94,22,9,23,0.64
2013-5-5,63,50,42,56,47,41,100,90,76,30.15,30.06,14,6,17,0.01
2013-5-6,73,59,44,59,51,43,97,77,48,30.11,30.00,13,3,14,0.00
2013-5-7,77,64,50,56,51,45,94,65,35,30.06,29.94,8,1,9,0.00
2013-5-8,72,61,51,59,55,48,96,80,53,29.97,29.91,14,2,14,1.26
2013-5-9,71,60,53,61,57,50,98,89,64,29.92,29.82,20,4,24,1.27
2013-5-10,67,56,47,55,49,45,96,79,52,30.03,29.92,20,6,22,0.00
2013-5-11,57,53,43,48,33,22,85,49,29,30.21,29.94,31,9,32,0.00
2013-5-12,62,50,35,34,29,24,75,46,23,30.27,30.12,16,3,18,0.00
2013-5-13,77,60,39,52,43,32,84,56,34,30.14,29.81,17,4,19,0.00
2013-5-14,96,80,60,66,57,48,80,50,28,29.81,29.53,21,5,21,0.00
2013-5-15,82,72,60,51,46,38,61,41,24,29.88,29.69,18,3,20,0.00
2013-5-16,82,71,56,67,59,49,83,67,54,29.87,29.75,12,2,13,0.00
2013-5-17,81,72,62,66,62,60,94,74,52,29.90,29.79,10,1,10,0.00
2013-5-18,84,72,58,67,63,56,96,74,52,29.91,29.71,12,2,13,0.00
2013-5-19,88,74,61,68,63,58,96,72,38,29.75,29.48,22,4,22,1.11
2013-5-20,76,66,59,65,60,56,97,84,61,29.62,29.49,18,4,18,0.46
2013-5-21,67,62,58,60,54,50,95,77,59,29.65,29.52,12,2,12,0.00
2013-5-22,62,58,53,57,54,51,96,87,79,29.88,29.62,17,3,18,0.02
2013-5-23,70,60,52,54,49,42,95,69,38,30.26,29.88,16,5,18,0.00
2013-5-24,71,61,46,55,49,42,87,66,46,30.34,30.13,13,2,14,0.01
2013-5-25,60,54,51,55,51,48,95,91,64,30.26,30.09,18,4,18,0.83
2013-5-26,61,54,51,60,53,49,98,94,92,30.15,29.86,21,4,21,0.56
2013-5-27,76,65,57,65,61,56,100,87,63,29.99,29.59,24,2,24,0.65
2013-5-28,80,70,60,69,64,60,98,84,59,29.72,29.53,13,1,13,0.43
2013-5-29,77,68,63,71,64,59,96,88,80,29.75,29.62,12,2,13,0.31
2013-5-30,72,68,64,67,63,58,94,85,78,29.64,29.50,15,4,15,0.06
2013-5-31,78,69,60,68,62,56,96,80,49,29.65,29.58,14,4,14,0.01
2013-6-1,70,62,56,64,56,51,94,82,69,29.91,29.58,21,2,24,0.31
2013-6-2,67,59,51,52,48,44,87,68,50,30.07,29.91,22,4,22,0.00
2013-6-3,72,61,47,54,50,46,98,70,42,30.07,29.90,8,1,12,0.00
2013-6-4,65,61,56,61,57,52,96,86,74,30.02,29.92,11,1,11,0.21
2013-6-5,69,63,56,61,58,53,96,86,65,29.99,29.89,12,2,12,0.50
2013-6-6,69,62,54,59,54,51,91,78,59,29.97,29.88,16,4,16,0.00
2013-6-7,69,60,51,56,52,49,95,78,56,30.01,29.90,12,2,12,0.00
2013-6-8,70,61,51,62,56,49,95,84,63,29.91,29.74,11,1,13,0.35
2013-6-9,71,65,61,64,61,59,94,88,74,29.75,29.66,11,2,11,0.16
2013-6-10,78,66,58,68,61,56,96,85,64,29.87,29.73,7,0,8,0.00
2013-6-11,86,75,62,74,68,60,93,79,64,29.87,29.64,15,1,15,0.00
2013-6-12,88,76,65,77,69,57,91,79,61,29.84,29.61,24,3,29,0.18
2013-6-13,84,72,62,63,58,54,80,62,39,30.02,29.83,15,3,16,0.00
2013-6-14,74,68,64,66,61,58,92,79,64,30.02,29.81,14,1,14,0.61
2013-6-15,81,72,64,73,66,61,93,84,71,29.95,29.80,12,1,13,0.53
2013-6-16,87,76,66,69,60,48,93,62,27,29.93,29.86,7,1,9,0.00
2013-6-17,88,75,62,67,59,54,84,60,35,29.94,29.86,14,1,14,0.00
2013-6-18,85,74,63,65,59,54,79,62,40,29.97,29.90,10,1,10,0.00
2013-6-19,84,74,64,70,63,58,84,71,46,30.02,29.92,10,1,10,0.00
2013-6-20,88,78,67,71,66,61,81,67,52,29.97,29.84,11,2,13,0.00
2013-6-21,89,80,72,77,71,66,82,74,64,29.92,29.77,18,3,19,0.01
2013-6-22,91,82,70,76,70,62,77,69,57,29.97,29.76,22,3,22,0.00
2013-6-23,81,75,67,71,68,62,86,77,67,29.89,29.72,14,2,17,0.15
2013-6-24,78,72,67,72,67,63,90,84,76,29.95,29.76,9,1,14,0.54
2013-6-25,88,77,69,76,70,66,89,79,55,29.78,29.66,10,1,10,0.24
2013-6-26,90,81,73,78,70,64,84,71,45,29.80,29.60,20,1,20,0.00
2013-6-27,87,76,66,72,66,61,84,71,50,29.91,29.80,12,1,15,0.00
2013-6-28,85,77,67,64,59,54,80,57,36,29.85,29.73,24,5,26,0.00
2013-6-29,76,70,64,64,59,55,83,70,53,29.88,29.73,24,6,27,0.12
2013-6-30,78,68,60,58,53,44,82,60,33,30.06,29.88,13,4,18,0.00
2013-7-1,83,71,58,60,54,51,78,56,35,30.11,30.05,15,3,17,0.00
2013-7-2,85,72,58,65,55,43,83,58,28,30.10,29.98,14,2,14,0.06
2013-7-3,82,70,57,66,58,52,86,66,44,30.03,29.93,8,0,8,0.00
2013-7-4,86,74,62,65,60,56,83,64,42,29.99,29.89,9,1,11,0.00
2013-7-5,88,77,65,68,62,58,79,61,44,29.94,29.84,12,2,13,0.00
2013-7-6,91,79,69,71,65,61,77,63,45,29.90,29.79,11,1,11,0.00
2013-7-7,91,82,73,72,68,64,74,63,48,29.85,29.79,9,1,11,0.00
2013-7-8,91,81,75,77,72,68,82,74,60,29.91,29.84,6,0,7,0.00
2013-7-9,94,82,74,79,73,69,84,75,56,29.92,29.80,9,0,10,0.09
2013-7-10,84,76,67,71,60,55,82,60,38,30.01,29.86,17,4,19,0.00
2013-7-11,85,73,61,64,59,56,82,62,40,30.09,29.97,8,0,12,0.00
2013-7-12,87,74,61,66,62,56,83,66,46,30.04,29.94,11,1,11,0.00
2013-7-13,79,73,68,67,61,56,75,67,62,30.02,29.94,12,1,14,0.54
2013-7-14,88,76,64,67,64,59,82,66,44,30.13,30.02,9,1,11,0.00
2013-7-15,89,77,65,73,67,59,83,72,54,30.19,30.09,8,0,12,0.00
2013-7-16,93,83,73,75,71,67,82,69,49,30.20,30.13,8,0,8,0.00
2013-7-17,97,84,71,74,70,66,84,65,40,30.25,30.11,8,0,8,0.00
2013-7-18,95,84,74,74,70,68,81,65,43,30.12,29.86,8,1,10,0.00
2013-7-19,96,83,72,75,68,62,76,63,38,29.87,29.76,10,1,11,0.00
2013-7-20,89,77,61,66,61,55,83,61,33,29.92,29.81,8,0,9,0.00
2013-7-21,82,73,64,70,65,59,83,76,54,29.87,29.76,8,0,11,0.03
2013-7-22,95,78,65,76,67,60,86,72,44,29.81,29.64,22,1,27,0.96
2013-7-23,78,69,63,64,60,58,85,75,56,29.96,29.76,13,3,14,0.00
2013-7-24,79,69,58,63,58,53,84,71,50,30.05,29.96,8,0,10,0.00
2013-7-25,87,74,61,70,63,56,84,71,51,30.02,29.89,10,1,10,0.00
2013-7-26,78,71,61,66,59,53,84,68,46,30.02,29.90,22,3,24,0.00
2013-7-27,72,62,52,54,49,45,84,65,41,30.07,29.97,18,3,19,0.00
2013-7-28,78,64,50,56,50,45,84,62,40,30.04,29.97,15,2,15,0.00
2013-7-29,74,64,52,61,56,47,85,74,57,30.10,30.02,7,0,7,0.00
2013-7-30,70,66,63,64,61,58,86,83,77,30.07,30.01,6,0,7,0.21
2013-7-31,86,72,63,69,63,59,85,74,50,30.10,29.97,9,1,10,0.01
2013-8-1,88,74,59,67,62,54,83,69,38,30.05,29.85,9,0,9,0.00
2013-8-2,81,71,65,68,62,58,82,74,55,29.99,29.85,16,2,19,0.00
2013-8-3,80,70,59,60,57,52,83,66,40,30.16,29.98,11,2,12,0.00
2013-8-4,82,69,55,62,58,50,83,67,46,30.17,30.01,8,0,8,0.00
2013-8-5,84,73,64,72,65,59,82,77,61,30.01,29.73,12,0,14,0.00
2013-8-6,90,77,64,73,67,59,83,73,46,29.86,29.73,8,0,9,0.00
2013-8-7,80,73,66,66,64,60,83,73,57,29.97,29.75,16,3,16,0.01
2013-8-8,81,70,57,65,60,52,85,72,50,29.99,29.92,7,0,8,0.00
2013-8-9,81,72,64,68,61,57,83,70,46,30.09,29.96,13,2,14,0.00
2013-8-10,84,71,57,65,59,52,83,67,46,30.17,30.05,7,0,7,0.00
2013-8-11,87,74,63,69,64,57,83,71,51,30.08,29.93,15,0,19,0.44
2013-8-12,83,72,64,69,62,57,84,71,46,30.02,29.94,16,3,16,0.07
2013-8-13,77,67,57,62,57,52,84,72,48,30.15,30.01,8,1,11,0.00
2013-8-14,76,65,54,58,53,48,84,67,41,30.20,30.09,5,0,8,0.00
2013-8-15,73,65,58,59,56,53,82,72,55,30.13,30.07,9,0,10,0.00
2013-8-16,79,65,52,60,54,48,84,69,43,30.18,30.11,7,0,10,0.00
2013-8-17,82,68,54,61,56,49,84,67,38,30.20,30.08,9,0,9,0.00
2013-8-18,84,69,56,63,57,51,84,69,42,30.15,30.02,7,0,8,0.00
2013-8-19,86,72,60,68,62,54,83,71,50,30.05,29.93,8,0,11,0.00
2013-8-20,92,79,70,72,67,63,80,68,48,29.95,29.86,13,1,13,0.00
2013-8-21,93,80,72,72,68,65,80,68,47,29.94,29.88,7,0,8,0.00
2013-8-22,87,77,69,71,68,63,82,74,56,30.04,29.92,7,0,7,0.00
2013-8-23,86,76,65,74,68,59,84,77,66,30.08,29.97,11,0,11,0.00
2013-8-24,90,80,71,75,70,66,83,72,56,30.09,29.98,10,0,14,0.00
2013-8-25,96,83,72,74,70,65,80,65,46,30.10,29.99,10,1,12,0.00
2013-8-26,98,84,73,75,70,67,82,66,40,30.05,29.88,8,0,9,0.00
2013-8-27,98,84,74,74,71,67,81,65,43,29.90,29.79,8,1,8,0.00
2013-8-28,98,83,69,72,68,63,82,63,36,29.94,29.85,5,0,6,0.00
2013-8-29,96,82,68,74,70,63,82,67,44,29.97,29.84,6,0,9,0.00
2013-8-30,102,85,70,79,72,64,83,68,37,29.85,29.71,12,1,14,0.00
2013-8-31,91,78,67,71,68,62,83,71,49,29.80,29.71,9,1,11,0.00
2013-9-1,85,75,64,67,63,57,83,68,42,29.93,29.67,17,4,17,0.10
2013-9-2,79,66,56,59,55,50,84,68,39,30.03,29.93,12,3,14,0.00
2013-9-3,84,66,49,61,54,44,85,69,37,30.10,29.99,5,0,12,0.00
2013-9-4,92,75,59,65,60,54,83,64,35,30.12,30.01,7,0,8,0.00
2013-9-5,90,76,68,68,65,62,83,69,44,30.15,30.06,7,0,7,0.54
2013-9-6,93,78,64,66,62,58,83,61,35,30.08,29.88,9,1,13,0.00
2013-9-7,91,80,72,72,68,61,81,67,51,29.89,29.79,8,0,9,0.00
2013-9-8,85,76,70,74,69,64,83,79,68,29.90,29.76,13,2,15,0.00
2013-9-9,100,83,69,69,65,62,84,60,29,29.80,29.71,10,1,12,0.00
2013-9-10,96,81,69,70,65,61,80,60,36,29.94,29.80,9,1,10,0.05
2013-9-11,87,75,67,72,65,62,84,72,47,30.04,29.93,7,0,9,0.61
2013-9-12,79,69,60,62,52,45,80,58,33,30.16,30.02,21,4,23,0.00
2013-9-13,72,61,49,52,49,45,84,66,42,30.22,30.08,10,1,11,0.00
2013-9-14,78,62,46,51,46,42,87,59,33,30.11,29.87,9,1,13,0.00
2013-9-15,70,66,58,62,56,50,81,70,53,30.21,29.82,21,3,21,0.00
2013-9-16,66,58,52,56,52,47,84,79,63,30.34,30.21,12,2,13,0.00
2013-9-17,65,58,54,60,53,49,86,83,83,30.24,29.96,7,0,7,0.45
2013-9-18,90,75,65,72,66,59,84,74,51,29.96,29.69,13,1,13,0.02
2013-9-19,84,73,62,71,66,58,85,78,55,29.84,29.63,11,1,13,0.77
2013-9-20,69,60,51,58,52,45,85,75,58,29.97,29.84,16,3,18,0.00
2013-9-21,76,58,45,51,46,40,89,67,35,30.02,29.88,9,0,9,0.00
2013-9-22,79,61,48,59,51,44,85,72,47,29.96,29.84,8,0,10,0.00
2013-9-23,76,62,49,57,52,44,85,70,45,29.93,29.80,9,1,13,0.00
2013-9-24,73,62,54,60,54,49,84,77,60,29.88,29.82,9,1,13,0.00
2013-9-25,79,64,51,62,55,47,84,74,53,29.93,29.79,11,0,12,0.00
2013-9-26,84,68,56,66,59,51,85,73,50,29.90,29.81,11,1,12,0.00
2013-9-27,86,74,66,67,63,60,83,68,43,29.92,29.81,13,1,14,0.00
2013-9-28,71,63,51,64,57,46,84,80,64,30.01,29.72,14,2,18,0.12
2013-9-29,76,60,44,52,46,39,89,64,35,30.06,29.90,9,1,15,0.00
2013-9-30,78,63,50,57,51,46,85,66,40,29.91,29.70,13,1,14,0.00
2013-10-1,84,67,58,59,52,44,83,62,28,29.94,29.75,9,0,9,0.00
2013-10-2,84,69,55,66,56,45,81,63,41,30.00,29.81,8,0,11,0.00
2013-10-3,81,71,64,66,62,59,84,74,53,29.82,29.71,10,0,11,0.00
2013-10-4,76,68,61,69,62,56,85,83,75,29.89,29.67,19,1,19,2.19
2013-10-5,71,54,46,64,43,37,81,67,52,29.90,29.75,14,1,14,0.00
2013-10-6,50,46,42,46,41,37,86,83,67,29.92,29.73,13,1,14,0.13
2013-10-7,74,56,43,48,44,39,86,67,32,30.04,29.92,8,1,11,0.00
2013-10-8,77,62,49,51,47,44,83,61,35,30.04,29.94,14,2,17,0.00
2013-10-9,75,62,52,55,50,47,84,68,42,30.07,29.99,7,0,9,0.00
2013-10-10,77,60,45,59,49,41,89,70,40,30.04,29.86,8,0,9,0.00
2013-10-11,72,64,57,64,58,52,84,79,71,29.87,29.68,12,1,14,0.00
2013-10-12,67,56,48,52,41,35,81,59,32,30.24,29.79,17,2,18,0.00
2013-10-13,66,50,37,41,36,32,84,61,33,30.45,30.24,9,0,9,0.00
2013-10-14,63,53,40,50,40,34,80,63,43,30.35,29.80,15,2,16,0.06
2013-10-15,59,51,47,53,45,42,85,81,74,29.93,29.74,17,2,17,0.49
2013-10-16,50,46,38,44,41,34,89,82,70,30.02,29.93,10,2,16,0.00
2013-10-17,62,48,37,45,39,33,86,72,39,29.97,29.83,16,1,17,0.00
2013-10-18,51,44,37,39,34,30,86,70,46,30.07,29.96,16,2,19,0.00
2013-10-19,58,46,34,40,35,30,85,67,42,29.96,29.79,14,1,16,0.00
2013-10-20,63,49,39,46,39,33,81,70,45,29.95,29.71,17,2,19,0.00
2013-10-21,51,41,33,35,31,26,84,68,42,30.08,29.95,16,2,16,0.00
2013-10-22,41,39,36,38,34,29,88,83,71,30.10,29.89,14,2,16,0.16
2013-10-23,42,37,31,36,32,27,92,81,62,30.18,30.08,10,1,11,0.03
2013-10-24,47,38,31,34,30,27,92,75,55,30.40,30.18,15,2,17,0.00
2013-10-25,56,41,27,36,30,24,92,68,45,30.43,30.04,9,0,9,0.00
2013-10-26,52,44,34,35,32,28,79,61,42,30.16,29.97,16,2,22,0.00
2013-10-27,63,44,28,38,32,24,92,66,37,30.14,29.86,9,0,10,0.00
2013-10-28,53,44,38,41,36,33,84,74,59,30.30,29.99,12,2,12,0.00
2013-10-29,55,47,40,48,41,34,85,79,73,30.29,30.01,11,1,12,0.54
2013-10-30,63,55,51,58,50,46,84,83,81,30.01,29.64,12,1,12,0.59
2013-10-31,53,45,41,49,40,37,91,85,79,29.66,29.45,9,0,10,0.01
2013-11-1,56,47,40,43,40,36,86,76,56,29.88,29.51,18,1,18,0.00
2013-11-2,54,45,36,40,37,32,86,75,48,30.14,29.88,10,1,10,0.00
2013-11-3,56,46,34,39,35,30,92,68,45,30.15,29.90,11,2,16,0.00
2013-11-4,54,48,45,48,43,39,89,81,65,30.16,29.89,11,0,11,0.09
2013-11-5,52,46,39,47,41,35,86,84,82,30.18,29.79,19,3,19,0.86
2013-11-6,46,38,31,35,31,26,92,77,46,30.29,29.86,24,6,26,0.02
2013-11-7,45,36,28,36,29,24,94,77,48,30.35,30.26,17,3,20,0.00
2013-11-8,59,44,26,39,32,22,92,64,42,30.31,29.77,19,4,22,0.00
2013-11-9,56,48,35,39,36,28,77,63,48,30.32,29.84,25,6,25,0.00
2013-11-10,49,39,26,34,29,23,88,69,47,30.45,30.16,13,3,13,0.00
2013-11-11,47,31,18,36,24,11,86,75,59,30.76,30.10,25,8,27,0.00
2013-11-12,30,20,10,16,12,7,92,71,46,30.93,30.64,13,3,15,0.00
2013-11-13,50,35,19,28,19,12,75,55,40,30.64,30.06,20,7,22,0.00
2013-11-14,53,42,34,31,25,21,65,53,41,30.06,29.89,14,5,17,0.00
2013-11-15,56,43,29,39,34,25,90,72,47,29.93,29.71,10,3,13,0.00
2013-11-16,66,53,44,57,47,38,91,81,61,29.71,29.27,20,4,23,0.03
2013-11-17,50,46,40,46,41,35,94,83,71,29.97,29.28,19,5,24,0.31
2013-11-18,46,37,29,35,31,27,93,81,63,30.29,29.96,20,4,20,0.00
2013-11-19,54,41,28,36,31,26,94,70,44,30.29,30.01,16,5,17,0.01
2013-11-20,46,41,34,38,34,28,95,77,51,30.03,29.88,19,5,20,0.01
2013-11-21,38,30,24,37,29,22,98,94,90,30.51,30.03,20,6,22,0.00
2013-11-22,24,21,16,22,16,12,93,84,69,30.70,30.51,17,5,17,0.02
2013-11-23,18,12,4,13,6,1,88,75,59,30.92,30.66,15,4,22,0.00
2013-11-24,27,16,3,15,8,0,88,72,52,30.85,30.32,14,4,15,0.00
2013-11-25,36,29,22,29,23,15,95,78,64,30.32,30.13,17,5,17,0.03
2013-11-26,29,24,15,25,15,8,89,69,49,30.43,30.18,27,8,29,0.00
2013-11-27,26,18,7,16,11,4,88,73,59,30.47,30.12,11,3,12,0.00
2013-11-28,33,24,16,20,16,11,87,71,55,30.58,30.10,18,4,18,0.00
2013-11-29,38,25,11,26,19,8,89,77,62,30.59,30.26,10,3,12,0.01
2013-11-30,49,36,28,35,29,24,89,76,58,30.26,30.08,8,2,9,0.00
2013-12-1,38,33,25,32,28,22,92,83,73,30.20,29.93,10,2,11,0.00
2013-12-2,46,36,32,39,33,29,96,87,73,29.94,29.56,12,2,13,0.00
2013-12-3,38,36,32,38,36,32,98,97,92,29.69,29.56,9,2,11,0.01
2013-12-4,38,30,17,37,28,12,100,95,81,29.98,29.54,22,4,24,0.02
2013-12-5,17,12,6,13,6,0,82,76,69,30.50,29.95,23,8,27,0.00
2013-12-6,14,6,0,3,-1,-5,79,72,59,30.78,30.48,19,6,19,0.00
2013-12-7,13,5,-4,4,-2,-8,82,71,56,30.88,30.62,12,3,13,0.00
2013-12-8,18,15,11,15,11,3,91,83,68,30.62,30.08,18,4,19,0.00
2013-12-9,14,4,-2,11,-2,-7,99,79,65,30.37,30.15,19,4,20,0.00
2013-12-10,20,17,5,18,9,-2,96,72,60,30.31,30.08,21,5,22,0.00
2013-12-11,20,6,-1,19,0,-6,100,77,67,30.71,30.27,21,4,22,0.00
2013-12-12,29,17,3,19,10,-3,89,75,64,30.57,30.19,11,3,12,0.00
2013-12-13,28,22,14,24,18,11,92,86,81,30.19,30.01,15,2,15,0.00
2013-12-14,24,19,11,20,15,7,92,85,76,30.23,30.12,17,6,18,0.00
2013-12-15,17,14,9,12,9,6,92,81,75,30.23,30.11,12,2,15,0.00
2013-12-16,28,19,8,24,16,6,93,88,82,30.18,30.05,13,3,14,0.00
2013-12-17,36,29,17,28,22,14,91,76,54,30.26,30.14,30,5,30,0.00
2013-12-18,45,32,16,34,25,12,94,77,61,30.21,29.77,20,3,23,0.00
2013-12-19,34,31,25,30,28,23,100,88,84,29.91,29.79,17,5,21,0.00
2013-12-20,26,23,20,24,21,18,94,92,90,29.97,29.86,16,5,17,0.00
2013-12-21,25,22,18,23,19,16,98,90,87,29.97,29.82,17,4,17,0.00
2013-12-22,25,17,4,23,14,1,94,88,82,30.41,29.83,20,8,23,0.00
2013-12-23,8,1,-6,1,-6,-13,85,73,57,30.67,30.40,21,6,21,0.00
2013-12-24,17,3,-14,14,-3,-19,92,76,64,30.67,30.30,13,3,13,0.00
2013-12-25,33,24,17,30,21,14,99,86,77,30.32,30.21,21,4,21,0.00
2013-12-26,37,28,19,28,22,16,92,80,66,30.28,30.13,11,3,12,0.00
2013-12-27,45,31,15,32,25,12,98,80,60,30.29,30.11,13,3,16,0.00
2013-12-28,50,37,22,36,30,19,89,76,57,30.11,29.79,30,5,30,0.00
2013-12-29,22,8,-1,19,0,-10,92,69,46,30.42,30.01,30,10,31,0.00
2013-12-30,13,6,-2,11,1,-10,92,79,64,30.41,30.21,9,2,10,0.00
2013-12-31,12,8,4,7,4,1,89,84,79,30.39,30.25,14,4,17,0.00
2014-1-1,9,7,4,5,2,-1,89,82,78,30.47,30.29,18,6,18,0.00
2014-1-2,10,2,-6,1,-3,-11,92,76,65,30.58,30.43,17,5,17,0.00